createdAt,value
2018-04-18T00:00:18.211Z,11.70
2018-04-18T00:02:50.804Z,11.70
2018-04-18T00:05:23.427Z,11.70
2018-04-18T00:07:56.779Z,11.60
2018-04-18T00:10:29.386Z,11.60
2018-04-18T00:13:01.980Z,11.60
2018-04-18T00:15:34.615Z,11.50
2018-04-18T00:18:07.971Z,11.50
2018-04-18T00:20:40.589Z,11.50
2018-04-18T00:23:13.179Z,11.50
2018-04-18T00:25:45.816Z,11.40
2018-04-18T00:28:18.413Z,11.40
2018-04-18T00:30:51.043Z,11.40
2018-04-18T00:33:23.651Z,11.30
2018-04-18T00:35:56.263Z,11.30
2018-04-18T00:38:29.627Z,11.30
2018-04-18T00:41:02.276Z,11.20
2018-04-18T00:43:34.907Z,11.20
2018-04-18T00:46:07.549Z,11.20
2018-04-18T00:48:40.922Z,11.10
2018-04-18T00:51:13.564Z,11.10
2018-04-18T00:53:46.159Z,11.10
2018-04-18T00:56:18.789Z,11.10
2018-04-18T00:58:51.379Z,11.10
2018-04-18T01:01:24.006Z,11.00
2018-04-18T01:03:57.364Z,11.00
2018-04-18T01:06:30.008Z,11.00
2018-04-18T01:09:03.372Z,10.90
2018-04-18T01:11:36.017Z,10.90
2018-04-18T01:14:08.628Z,10.90
2018-04-18T01:16:41.247Z,10.80
2018-04-18T01:19:13.835Z,10.80
2018-04-18T01:21:46.466Z,10.80
2018-04-18T01:24:19.063Z,10.80
2018-04-18T01:26:52.475Z,10.70
2018-04-18T01:29:25.840Z,10.70
2018-04-18T01:31:58.460Z,10.70
2018-04-18T01:34:31.050Z,10.60
2018-04-18T01:37:03.683Z,10.60
2018-04-18T01:39:36.395Z,10.60
2018-04-18T01:42:09.038Z,10.60
2018-04-18T01:44:42.403Z,10.50
2018-04-18T01:47:15.009Z,10.50
2018-04-18T01:49:47.617Z,10.40
2018-04-18T01:52:20.243Z,10.40
2018-04-18T01:54:52.845Z,10.40
2018-04-18T01:57:25.541Z,10.40
2018-04-18T01:59:58.146Z,10.30
2018-04-18T02:02:30.776Z,10.30
2018-04-18T02:05:03.382Z,10.30
2018-04-18T02:07:36.793Z,10.20
2018-04-18T02:10:10.171Z,10.10
2018-04-18T02:12:42.821Z,10.10
2018-04-18T02:15:15.424Z,10.10
2018-04-18T02:17:48.051Z,10.10
2018-04-18T02:20:20.652Z,10.10
2018-04-18T02:22:53.300Z,10.00
2018-04-18T02:25:25.909Z,10.00
2018-04-18T02:27:58.533Z,10.00
2018-04-18T02:30:31.123Z,9.90
2018-04-18T02:33:03.759Z,9.90
2018-04-18T02:35:36.357Z,9.90
2018-04-18T02:38:08.980Z,9.90
2018-04-18T02:40:41.589Z,9.80
2018-04-18T02:43:14.209Z,9.80
2018-04-18T02:45:46.808Z,9.80
2018-04-18T02:48:19.440Z,9.80
2018-04-18T02:50:52.064Z,9.80
2018-04-18T02:53:25.448Z,9.80
2018-04-18T02:55:58.040Z,9.70
2018-04-18T02:58:30.676Z,9.70
2018-04-18T03:01:03.264Z,9.70
2018-04-18T03:03:35.896Z,9.70
2018-04-18T03:06:08.500Z,9.70
2018-04-18T03:08:41.128Z,9.70
2018-04-18T03:11:13.733Z,9.60
2018-04-18T03:13:46.357Z,9.60
2018-04-18T03:16:18.960Z,9.60
2018-04-18T03:18:52.568Z,9.60
2018-04-18T03:21:25.193Z,9.60
2018-04-18T03:23:57.829Z,9.60
2018-04-18T03:26:30.492Z,9.50
2018-04-18T03:29:03.076Z,9.60
2018-04-18T03:31:36.512Z,9.50
2018-04-18T03:34:09.136Z,9.50
2018-04-18T03:36:41.736Z,9.50
2018-04-18T03:39:14.380Z,9.50
2018-04-18T03:41:47.736Z,9.50
2018-04-18T03:44:20.371Z,9.40
2018-04-18T03:46:53.749Z,9.40
2018-04-18T03:49:26.383Z,9.40
2018-04-18T03:51:58.987Z,9.40
2018-04-18T03:54:31.629Z,9.40
2018-04-18T03:57:05.312Z,9.40
2018-04-18T03:59:37.936Z,9.40
2018-04-18T04:02:10.545Z,9.30
2018-04-18T04:04:43.954Z,9.30
2018-04-18T04:07:16.551Z,9.30
2018-04-18T04:09:49.959Z,9.30
2018-04-18T04:12:23.323Z,9.20
2018-04-18T04:14:55.944Z,9.20
2018-04-18T04:17:40.445Z,9.20
2018-04-18T04:20:25.753Z,9.20
2018-04-18T04:23:10.303Z,9.10
2018-04-18T04:25:42.937Z,9.10
2018-04-18T04:28:15.545Z,9.10
2018-04-18T04:30:48.164Z,9.10
2018-04-18T04:33:22.271Z,9.10
2018-04-18T04:35:54.897Z,9.10
2018-04-18T04:38:27.500Z,9.10
2018-04-18T04:41:00.120Z,9.10
2018-04-18T04:43:32.731Z,9.10
2018-04-18T04:46:05.357Z,9.10
2018-04-18T04:48:38.723Z,9.10
2018-04-18T04:51:11.363Z,9.00
2018-04-18T04:53:44.732Z,9.10
2018-04-18T04:56:17.380Z,9.10
2018-04-18T04:58:49.981Z,9.00
2018-04-18T05:01:22.658Z,9.00
2018-04-18T05:03:55.232Z,9.10
2018-04-18T05:06:28.624Z,9.10
2018-04-18T05:09:01.233Z,9.10
2018-04-18T05:11:34.616Z,9.10
2018-04-18T05:14:07.224Z,9.10
2018-04-18T05:16:40.648Z,9.10
2018-04-18T05:19:14.017Z,9.10
2018-04-18T05:21:46.658Z,9.10
2018-04-18T05:24:20.037Z,9.20
2018-04-18T05:26:52.691Z,9.10
2018-04-18T05:29:25.344Z,9.20
2018-04-18T05:31:57.923Z,9.30
2018-04-18T05:34:30.521Z,9.40
2018-04-18T05:37:03.900Z,9.50
2018-04-18T05:39:36.510Z,9.50
2018-04-18T05:42:09.156Z,9.60
2018-04-18T05:44:41.752Z,9.60
2018-04-18T05:47:14.414Z,9.70
2018-04-18T05:49:47.013Z,9.80
2018-04-18T05:52:19.636Z,9.90
2018-04-18T05:54:52.277Z,10.00
2018-04-18T05:57:24.885Z,10.10
2018-04-18T05:59:57.493Z,10.10
2018-04-18T06:02:30.116Z,10.30
2018-04-18T06:05:02.726Z,10.40
2018-04-18T06:07:35.380Z,10.50
2018-04-18T06:10:07.983Z,10.60
2018-04-18T06:12:40.628Z,10.70
2018-04-18T06:15:13.231Z,10.80
2018-04-18T06:17:45.848Z,11.00
2018-04-18T06:20:18.450Z,11.20
2018-04-18T06:22:51.071Z,11.40
2018-04-18T06:25:23.678Z,11.60
2018-04-18T06:27:57.076Z,11.90
2018-04-18T06:30:30.439Z,12.10
2018-04-18T06:33:03.085Z,12.10
2018-04-18T06:35:36.455Z,12.50
2018-04-18T06:38:09.102Z,12.50
2018-04-18T06:40:41.713Z,12.70
2018-04-18T06:43:14.341Z,12.90
2018-04-18T06:45:46.950Z,13.00
2018-04-18T06:48:20.339Z,13.30
2018-04-18T06:50:52.944Z,13.30
2018-04-18T06:53:25.564Z,13.40
2018-04-18T06:55:58.173Z,13.60
2018-04-18T06:58:30.805Z,13.70
2018-04-18T07:01:03.408Z,13.90
2018-04-18T07:03:36.033Z,14.00
2018-04-18T07:06:08.645Z,14.20
2018-04-18T07:08:41.292Z,14.30
2018-04-18T07:11:14.673Z,14.80
2018-04-18T07:13:47.333Z,14.70
2018-04-18T07:16:19.954Z,15.00
2018-04-18T07:18:52.599Z,15.10
2018-04-18T07:21:25.229Z,15.30
2018-04-18T07:23:57.887Z,15.50
2018-04-18T07:26:30.506Z,15.70
2018-04-18T07:29:03.137Z,15.90
2018-04-18T07:31:35.750Z,16.00
2018-04-18T07:34:09.157Z,16.40
2018-04-18T07:36:56.515Z,16.50
2018-04-18T07:39:29.146Z,16.50
2018-04-18T07:42:01.761Z,16.70
2018-04-18T07:44:34.405Z,16.90
2018-04-18T07:47:07.013Z,17.10
2018-04-18T07:49:39.644Z,17.20
2018-04-18T07:52:12.247Z,17.40
2018-04-18T07:54:45.631Z,17.80
2018-04-18T07:57:18.243Z,17.70
2018-04-18T07:59:51.656Z,18.10
2018-04-18T08:02:25.037Z,18.30
2018-04-18T08:04:57.664Z,18.30
2018-04-18T08:07:30.263Z,18.50
2018-04-18T08:10:02.892Z,18.60
2018-04-18T08:12:35.509Z,18.80
2018-04-18T08:15:08.137Z,18.90
2018-04-18T08:17:40.759Z,19.10
2018-04-18T08:20:13.416Z,19.30
2018-04-18T08:22:46.029Z,19.50
2018-04-18T08:25:18.652Z,19.60
2018-04-18T08:27:57.108Z,19.80
2018-04-18T08:30:30.536Z,20.20
2018-04-18T08:33:03.145Z,20.10
2018-04-18T08:35:35.798Z,20.30
2018-04-18T08:38:09.172Z,20.70
2018-04-18T08:40:41.818Z,20.70
2018-04-18T08:43:14.416Z,20.80
2018-04-18T08:45:47.055Z,20.90
2018-04-18T08:48:19.662Z,21.10
2018-04-18T08:50:52.297Z,21.20
2018-04-18T08:53:24.925Z,21.30
2018-04-18T08:55:57.546Z,21.50
2018-04-18T08:58:30.921Z,21.80
2018-04-18T09:01:03.543Z,21.70
2018-04-18T09:03:36.143Z,21.90
2018-04-18T09:06:09.532Z,22.20
2018-04-18T09:08:42.133Z,22.20
2018-04-18T09:11:15.552Z,22.60
2018-04-18T09:13:48.924Z,22.70
2018-04-18T09:16:21.550Z,22.70
2018-04-18T09:18:54.931Z,23.00
2018-04-18T09:21:27.583Z,23.00
2018-04-18T09:24:00.190Z,23.20
2018-04-18T09:26:32.820Z,23.40
2018-04-18T09:29:05.431Z,23.50
2018-04-18T09:31:38.840Z,23.80
2018-04-18T09:34:12.217Z,23.90
2018-04-18T09:36:44.880Z,23.90
2018-04-18T09:39:17.492Z,24.00
2018-04-18T09:41:50.116Z,24.10
2018-04-18T09:44:23.486Z,24.40
2018-04-18T09:46:56.112Z,24.40
2018-04-18T09:49:29.482Z,24.70
2018-04-18T09:52:02.112Z,24.70
2018-04-18T09:54:35.489Z,25.10
2018-04-18T09:57:08.137Z,25.00
2018-04-18T09:59:40.739Z,25.30
2018-04-18T10:02:18.225Z,25.40
2018-04-18T10:04:50.836Z,25.60
2018-04-18T10:07:23.462Z,25.70
2018-04-18T10:09:56.080Z,25.90
2018-04-18T10:12:28.720Z,26.10
2018-04-18T10:15:01.322Z,26.20
2018-04-18T10:17:33.965Z,26.30
2018-04-18T10:20:07.336Z,26.30
2018-04-18T10:22:39.984Z,26.30
2018-04-18T10:25:12.593Z,26.50
2018-04-18T10:27:45.235Z,26.70
2018-04-18T10:30:17.840Z,26.80
2018-04-18T10:32:51.238Z,26.90
2018-04-18T10:35:23.843Z,26.90
2018-04-18T10:37:57.239Z,27.20
2018-04-18T10:40:29.840Z,27.20
2018-04-18T10:43:03.264Z,27.30
2018-04-18T10:45:36.640Z,27.30
2018-04-18T10:48:09.288Z,27.20
2018-04-18T10:50:41.892Z,27.40
2018-04-18T10:53:14.541Z,27.30
2018-04-18T10:55:47.921Z,27.50
2018-04-18T10:58:20.552Z,27.50
2018-04-18T11:00:53.934Z,27.60
2018-04-18T11:03:26.580Z,27.60
2018-04-18T11:05:59.189Z,27.60
2018-04-18T11:08:31.833Z,27.70
2018-04-18T11:11:05.204Z,27.80
2018-04-18T11:13:37.861Z,27.80
2018-04-18T11:16:10.471Z,27.80
2018-04-18T11:18:43.132Z,27.90
2018-04-18T11:21:15.759Z,28.00
2018-04-18T11:23:48.385Z,28.00
2018-04-18T11:26:21.760Z,28.00
2018-04-18T11:28:54.383Z,28.00
2018-04-18T11:31:26.993Z,28.20
2018-04-18T11:33:59.649Z,28.30
2018-04-18T11:36:32.269Z,28.30
2018-04-18T11:39:05.679Z,28.50
2018-04-18T11:41:39.048Z,28.50
2018-04-18T11:44:11.703Z,28.50
2018-04-18T11:46:44.311Z,28.60
2018-04-18T11:49:16.932Z,28.70
2018-04-18T11:51:49.540Z,28.50
2018-04-18T11:54:22.174Z,28.50
2018-04-18T11:56:54.783Z,28.30
2018-04-18T11:59:27.440Z,28.20
2018-04-18T12:02:00.048Z,28.20
2018-04-18T12:04:32.677Z,28.30
2018-04-18T12:07:05.280Z,28.30
2018-04-18T12:09:37.924Z,28.20
2018-04-18T12:12:10.534Z,28.40
2018-04-18T12:14:43.177Z,28.30
2018-04-18T12:17:16.548Z,28.40
2018-04-18T12:19:49.202Z,28.40
2018-04-18T12:22:21.804Z,28.50
2018-04-18T12:24:54.429Z,28.60
2018-04-18T12:27:27.033Z,28.60
2018-04-18T12:29:59.664Z,28.60
2018-04-18T12:32:32.275Z,28.70
2018-04-18T12:35:04.934Z,28.70
2018-04-18T12:37:37.549Z,28.80
2018-04-18T12:40:10.193Z,28.80
2018-04-18T12:42:42.803Z,28.90
2018-04-18T12:45:16.228Z,29.00
2018-04-18T12:47:48.837Z,29.00
2018-04-18T12:50:21.463Z,29.00
2018-04-18T12:52:54.075Z,29.10
2018-04-18T12:55:27.464Z,29.10
2018-04-18T12:58:00.084Z,29.10
2018-04-18T13:00:33.473Z,29.10
2018-04-18T13:03:06.077Z,29.10
2018-04-18T13:05:39.475Z,29.00
2018-04-18T13:08:12.100Z,29.00
2018-04-18T13:10:44.766Z,29.00
2018-04-18T13:13:18.148Z,28.80
2018-04-18T13:15:50.792Z,28.80
2018-04-18T13:18:23.431Z,28.90
2018-04-18T13:20:56.057Z,28.90
2018-04-18T13:23:29.435Z,28.70
2018-04-18T13:26:02.085Z,28.60
2018-04-18T13:28:34.701Z,28.70
2018-04-18T13:31:07.779Z,28.70
2018-04-18T13:33:40.429Z,28.70
2018-04-18T13:36:13.066Z,28.60
2018-04-18T13:38:45.668Z,28.70
2018-04-18T13:41:18.312Z,28.60
2018-04-18T13:43:51.683Z,28.70
2018-04-18T13:46:24.299Z,28.60
2018-04-18T13:48:56.899Z,28.60
2018-04-18T13:51:29.547Z,28.30
2018-04-18T13:54:02.143Z,28.30
2018-04-18T13:56:34.784Z,28.40
2018-04-18T13:59:08.155Z,28.20
2018-04-18T14:01:40.808Z,28.20
2018-04-18T14:04:13.409Z,28.20
2018-04-18T14:06:46.026Z,28.30
2018-04-18T14:09:18.640Z,28.20
2018-04-18T14:11:51.269Z,28.10
2018-04-18T14:14:24.062Z,28.00
2018-04-18T14:16:56.727Z,28.00
2018-04-18T14:19:29.360Z,27.90
2018-04-18T14:22:01.984Z,27.80
2018-04-18T14:24:34.595Z,27.80
2018-04-18T14:27:07.244Z,27.80
2018-04-18T14:29:39.852Z,27.80
2018-04-18T14:32:12.471Z,27.80
2018-04-18T14:34:45.068Z,27.80
2018-04-18T14:37:17.720Z,27.80
2018-04-18T14:39:50.588Z,27.90
2018-04-18T14:42:24.007Z,27.80
2018-04-18T14:44:56.627Z,27.80
2018-04-18T14:47:29.271Z,27.80
2018-04-18T14:50:02.636Z,27.80
2018-04-18T14:52:35.262Z,27.80
2018-04-18T14:55:08.658Z,27.80
2018-04-18T14:57:49.487Z,27.70
2018-04-18T15:00:22.095Z,27.70
2018-04-18T15:02:54.746Z,27.60
2018-04-18T15:05:28.124Z,27.60
2018-04-18T15:08:00.754Z,27.60
2018-04-18T15:10:34.129Z,27.60
2018-04-18T15:13:06.757Z,27.60
2018-04-18T15:15:40.132Z,27.50
2018-04-18T15:18:13.569Z,27.40
2018-04-18T15:20:46.952Z,27.30
2018-04-18T15:23:19.600Z,27.20
2018-04-18T15:25:52.216Z,27.20
2018-04-18T15:28:25.003Z,27.10
2018-04-18T15:30:57.604Z,27.00
2018-04-18T15:33:30.254Z,26.90
2018-04-18T15:36:02.860Z,26.70
2018-04-18T15:38:35.577Z,26.60
2018-04-18T15:41:08.193Z,26.50
2018-04-18T15:43:40.833Z,26.50
2018-04-18T15:46:13.446Z,26.60
2018-04-18T15:48:46.089Z,26.50
2018-04-18T15:51:19.461Z,26.50
2018-04-18T15:53:52.102Z,26.40
2018-04-18T15:56:25.479Z,26.40
2018-04-18T15:58:58.125Z,26.40
2018-04-18T16:01:30.728Z,26.40
2018-04-18T16:04:03.376Z,26.30
2018-04-18T16:06:36.766Z,26.30
2018-04-18T16:09:09.430Z,26.30
2018-04-18T16:11:42.051Z,26.20
2018-04-18T16:14:14.707Z,26.20
2018-04-18T16:16:47.317Z,26.10
2018-04-18T16:19:19.948Z,26.10
2018-04-18T16:21:53.320Z,25.80
2018-04-18T16:24:25.957Z,25.80
2018-04-18T16:26:59.328Z,25.70
2018-04-18T16:29:40.637Z,25.70
2018-04-18T16:32:13.265Z,25.60
2018-04-18T16:34:45.888Z,25.50
2018-04-18T16:37:18.527Z,25.30
2018-04-18T16:39:51.928Z,25.10
2018-04-18T16:42:25.311Z,25.00
2018-04-18T16:44:57.936Z,25.00
2018-04-18T16:47:31.309Z,24.90
2018-04-18T16:50:03.961Z,24.80
2018-04-18T16:52:36.569Z,24.70
2018-04-18T16:55:09.223Z,24.60
2018-04-18T16:57:41.836Z,24.60
2018-04-18T17:00:14.486Z,24.50
2018-04-18T17:02:47.878Z,24.40
2018-04-18T17:05:20.508Z,24.30
2018-04-18T17:07:53.885Z,24.20
2018-04-18T17:10:26.538Z,24.20
2018-04-18T17:12:59.139Z,24.20
2018-04-18T17:15:31.776Z,24.10
2018-04-18T17:18:05.146Z,24.00
2018-04-18T17:20:37.792Z,23.90
2018-04-18T17:23:11.169Z,23.90
2018-04-18T17:25:43.814Z,23.90
2018-04-18T17:28:16.429Z,23.80
2018-04-18T17:30:49.080Z,23.70
2018-04-18T17:33:21.683Z,23.70
2018-04-18T17:35:54.299Z,23.60
2018-04-18T17:38:26.905Z,23.60
2018-04-18T17:40:59.587Z,23.40
2018-04-18T17:43:32.177Z,23.30
2018-04-18T17:46:04.810Z,23.30
2018-04-18T17:48:38.224Z,23.10
2018-04-18T17:51:10.863Z,23.10
2018-04-18T17:53:43.470Z,23.00
2018-04-18T17:56:16.170Z,22.90
2018-04-18T17:58:48.781Z,22.80
2018-04-18T18:01:22.171Z,22.70
2018-04-18T18:03:54.775Z,22.70
2018-04-18T18:06:27.487Z,22.60
2018-04-18T18:09:00.045Z,22.60
2018-04-18T18:11:32.686Z,22.50
2018-04-18T18:14:05.292Z,22.50
2018-04-18T18:16:37.928Z,22.40
2018-04-18T18:19:10.527Z,22.30
2018-04-18T18:21:43.177Z,22.20
2018-04-18T18:24:15.779Z,22.10
2018-04-18T18:26:48.416Z,22.00
2018-04-18T18:29:28.130Z,21.80
2018-04-18T18:32:00.773Z,21.80
2018-04-18T18:34:34.147Z,21.60
2018-04-18T18:37:06.798Z,21.60
2018-04-18T18:39:39.447Z,21.50
2018-04-18T18:42:12.097Z,21.50
2018-04-18T18:44:44.716Z,21.40
2018-04-18T18:47:17.341Z,21.30
2018-04-18T18:49:50.745Z,21.10
2018-04-18T18:52:24.160Z,21.00
2018-04-18T18:54:57.549Z,20.90
2018-04-18T18:57:30.185Z,20.90
2018-04-18T19:00:04.797Z,20.70
2018-04-18T19:02:39.152Z,20.70
2018-04-18T19:05:12.046Z,20.60
2018-04-18T19:07:45.036Z,20.60
2018-04-18T19:10:18.047Z,20.50
2018-04-18T19:13:02.383Z,20.40
2018-04-18T19:15:35.224Z,20.30
2018-04-18T19:18:08.179Z,20.20
2018-04-18T19:20:41.009Z,20.20
2018-04-18T19:23:14.910Z,20.10
2018-04-18T19:25:47.778Z,20.00
2018-04-18T19:28:20.621Z,19.90
2018-04-18T19:30:54.229Z,19.80
2018-04-18T19:33:27.053Z,19.70
2018-04-18T19:35:59.860Z,19.70
2018-04-18T19:38:32.736Z,19.60
2018-04-18T19:41:06.104Z,19.50
2018-04-18T19:43:38.918Z,19.40
2018-04-18T19:46:11.722Z,19.40
2018-04-18T19:48:45.401Z,19.30
2018-04-18T19:51:18.978Z,19.20
2018-04-18T19:53:51.827Z,19.20
2018-04-18T19:56:25.002Z,19.10
2018-04-18T19:58:57.915Z,19.00
2018-04-18T20:01:30.699Z,19.00
2018-04-18T20:04:03.550Z,18.90
2018-04-18T20:06:36.372Z,18.80
2018-04-18T20:09:09.734Z,18.80
2018-04-18T20:11:42.491Z,18.70
2018-04-18T20:14:15.297Z,18.60
2018-04-18T20:16:48.076Z,18.60
2018-04-18T20:19:21.120Z,18.50
2018-04-18T20:21:54.684Z,18.40
2018-04-18T20:24:27.571Z,18.40
2018-04-18T20:27:00.466Z,18.30
2018-04-18T20:29:33.299Z,18.30
2018-04-18T20:32:06.154Z,18.20
2018-04-18T20:34:38.914Z,18.10
2018-04-18T20:37:12.749Z,17.90
2018-04-18T20:39:45.591Z,18.00
2018-04-18T20:42:18.413Z,17.90
2018-04-18T20:44:52.123Z,17.80
2018-04-18T20:47:24.893Z,17.70
2018-04-18T20:49:57.628Z,17.70
2018-04-18T20:52:30.496Z,17.60
2018-04-18T20:55:03.498Z,17.60
2018-04-18T20:57:36.761Z,17.50
2018-04-18T21:00:10.032Z,17.50
2018-04-18T21:02:43.185Z,17.40
2018-04-18T21:05:16.419Z,17.40
2018-04-18T21:07:49.243Z,17.30
2018-04-18T21:10:22.169Z,17.20
2018-04-18T21:12:54.977Z,17.20
2018-04-18T21:15:27.750Z,17.00
2018-04-18T21:18:01.360Z,17.00
2018-04-18T21:20:34.195Z,16.90
2018-04-18T21:23:07.010Z,16.90
2018-04-18T21:25:39.919Z,16.80
2018-04-18T21:28:12.659Z,16.80
2018-04-18T21:30:45.453Z,16.70
2018-04-18T21:33:18.255Z,16.70
2018-04-18T21:35:51.067Z,16.60
2018-04-18T21:38:24.882Z,16.60
2018-04-18T21:40:57.779Z,16.50
2018-04-18T21:43:30.564Z,16.50
2018-04-18T21:46:03.423Z,16.40
2018-04-18T21:48:36.306Z,16.30
2018-04-18T21:51:09.365Z,16.30
2018-04-18T21:53:42.126Z,16.30
2018-04-18T21:56:15.692Z,16.20
2018-04-18T21:58:48.493Z,16.10
2018-04-18T22:01:21.292Z,16.10
2018-04-18T22:03:54.092Z,16.10
2018-04-18T22:06:26.941Z,16.00
2018-04-18T22:08:59.750Z,16.00
2018-04-18T22:11:32.498Z,15.90
2018-04-18T22:14:05.269Z,15.90
2018-04-18T22:16:38.033Z,15.80
2018-04-18T22:19:10.801Z,15.80
2018-04-18T22:21:43.612Z,15.70
2018-04-18T22:24:17.140Z,15.60
2018-04-18T22:26:49.928Z,15.50
2018-04-18T22:29:22.670Z,15.50
2018-04-18T22:31:55.410Z,15.50
2018-04-18T22:34:28.162Z,15.50
2018-04-18T22:37:00.969Z,15.40
2018-04-18T22:39:33.808Z,15.40
2018-04-18T22:42:06.554Z,15.30
2018-04-18T22:44:39.295Z,15.30
2018-04-18T22:47:12.089Z,15.20
2018-04-18T22:49:44.843Z,15.20
2018-04-18T22:52:17.673Z,15.10
2018-04-18T22:54:50.394Z,15.10
2018-04-18T22:57:23.150Z,15.00
2018-04-18T22:59:55.911Z,15.00
2018-04-18T23:02:28.676Z,14.90
2018-04-18T23:05:01.473Z,14.80
2018-04-18T23:07:34.273Z,14.70
2018-04-18T23:10:07.017Z,14.60
2018-04-18T23:12:40.544Z,14.50
2018-04-18T23:15:14.042Z,14.40
2018-04-18T23:17:47.632Z,14.40
2018-04-18T23:20:20.449Z,14.40
2018-04-18T23:22:53.244Z,14.40
2018-04-18T23:25:26.767Z,14.30
2018-04-18T23:28:00.324Z,14.20
2018-04-18T23:30:33.092Z,14.20
2018-04-18T23:33:05.870Z,14.20
2018-04-18T23:35:38.648Z,14.10
2018-04-18T23:38:12.212Z,14.00
2018-04-18T23:40:44.985Z,14.00
2018-04-18T23:43:17.869Z,14.00
2018-04-18T23:45:51.332Z,14.00
2018-04-18T23:48:24.162Z,14.00
2018-04-18T23:50:57.707Z,13.90
2018-04-18T23:53:30.504Z,13.90
2018-04-18T23:56:03.285Z,13.90
2018-04-18T23:58:36.835Z,13.80
